createdAt,value
2019-02-04T00:01:26.259Z,5.96
2019-02-04T00:04:00.794Z,6.03
2019-02-04T00:06:35.082Z,6.11
2019-02-04T00:09:10.882Z,6.14
2019-02-04T00:11:45.302Z,6.21
2019-02-04T00:14:19.457Z,6.25
2019-02-04T00:16:54.050Z,6.18
2019-02-04T00:19:39.939Z,6.28
2019-02-04T00:22:26.602Z,6.34
2019-02-04T00:25:12.822Z,6.28
2019-02-04T00:27:56.590Z,6.32
2019-02-04T00:30:30.709Z,6.29
2019-02-04T00:33:04.896Z,6.31
2019-02-04T00:35:39.037Z,6.07
2019-02-04T00:38:12.839Z,6.28
2019-02-04T00:40:47.417Z,6.19
2019-02-04T00:43:21.642Z,6.26
2019-02-04T00:45:56.093Z,6.21
2019-02-04T00:48:30.052Z,6.24
2019-02-04T00:51:04.541Z,6.11
2019-02-04T00:53:38.982Z,6.13
2019-02-04T00:56:13.394Z,6.12
2019-02-04T00:58:47.638Z,6.15
2019-02-04T01:01:21.537Z,5.92
2019-02-04T01:03:55.744Z,6.02
2019-02-04T01:06:29.883Z,6.01
2019-02-04T01:09:04.111Z,6.02
2019-02-04T01:11:39.135Z,6.04
2019-02-04T01:14:13.667Z,6.10
2019-02-04T01:16:47.778Z,6.16
2019-02-04T01:19:22.001Z,6.25
2019-02-04T01:21:56.044Z,6.39
2019-02-04T01:24:30.101Z,6.46
2019-02-04T01:27:16.214Z,6.51
2019-02-04T01:30:03.136Z,6.51
2019-02-04T01:32:47.455Z,6.50
2019-02-04T01:35:21.687Z,6.57
2019-02-04T01:38:03.975Z,6.51
2019-02-04T01:40:38.544Z,6.49
2019-02-04T01:43:13.013Z,6.20
2019-02-04T01:45:47.233Z,6.33
2019-02-04T01:48:21.320Z,6.32
2019-02-04T01:50:55.244Z,6.25
2019-02-04T01:53:29.641Z,6.34
2019-02-04T01:56:03.464Z,6.30
2019-02-04T01:58:39.299Z,6.28
2019-02-04T02:01:12.904Z,6.32
2019-02-04T02:03:47.866Z,6.29
2019-02-04T02:06:21.493Z,6.26
2019-02-04T02:08:55.514Z,6.08
2019-02-04T02:11:29.386Z,5.99
2019-02-04T02:14:03.833Z,6.09
2019-02-04T02:16:38.245Z,6.11
2019-02-04T02:19:15.195Z,6.11
2019-02-04T02:21:48.901Z,6.15
2019-02-04T02:24:23.062Z,6.25
2019-02-04T02:26:57.181Z,6.27
2019-02-04T02:29:41.182Z,6.22
2019-02-04T02:32:15.619Z,6.23
2019-02-04T02:34:49.588Z,6.25
2019-02-04T02:37:23.809Z,6.18
2019-02-04T02:39:59.046Z,6.11
2019-02-04T02:42:33.166Z,6.16
2019-02-04T02:45:08.321Z,5.97
2019-02-04T02:47:45.130Z,6.11
2019-02-04T02:50:19.372Z,6.17
2019-02-04T02:52:53.725Z,6.04
2019-02-04T02:55:29.257Z,6.07
2019-02-04T02:58:02.959Z,6.11
2019-02-04T03:00:36.788Z,6.11
2019-02-04T03:03:10.696Z,6.06
2019-02-04T03:05:44.819Z,6.12
2019-02-04T03:08:19.450Z,6.14
2019-02-04T03:11:06.224Z,5.99
2019-02-04T03:13:52.098Z,5.99
2019-02-04T03:16:26.583Z,6.11
2019-02-04T03:19:00.513Z,6.18
2019-02-04T03:21:34.411Z,6.13
2019-02-04T03:24:08.421Z,6.17
2019-02-04T03:26:42.363Z,6.16
2019-02-04T03:29:16.723Z,6.18
2019-02-04T03:32:03.791Z,6.21
2019-02-04T03:34:48.369Z,6.23
2019-02-04T03:37:31.912Z,6.21
2019-02-04T03:40:05.163Z,6.27
2019-02-04T03:42:45.549Z,6.14
2019-02-04T03:45:20.278Z,6.21
2019-02-04T03:48:04.525Z,6.14
2019-02-04T03:50:31.371Z,6.04
2019-02-04T03:53:05.429Z,6.16
2019-02-04T03:55:39.495Z,6.26
2019-02-04T03:58:13.076Z,6.28
2019-02-04T04:00:47.155Z,6.28
2019-02-04T04:03:22.555Z,6.34
2019-02-04T04:05:56.523Z,6.30
2019-02-04T04:08:30.681Z,6.32
2019-02-04T04:11:04.628Z,6.35
2019-02-04T04:13:40.383Z,6.36
2019-02-04T04:16:14.618Z,6.38
2019-02-04T04:18:48.210Z,6.38
2019-02-04T04:21:25.200Z,6.32
2019-02-04T04:23:59.446Z,6.31
2019-02-04T04:26:33.192Z,6.26
2019-02-04T04:29:07.488Z,6.14
2019-02-04T04:31:41.771Z,6.08
2019-02-04T04:34:15.861Z,6.02
2019-02-04T04:36:50.102Z,6.00
2019-02-04T04:39:23.946Z,5.99
2019-02-04T04:41:57.525Z,6.00
2019-02-04T04:44:36.355Z,5.99
2019-02-04T04:47:10.385Z,6.03
2019-02-04T04:49:45.702Z,6.03
2019-02-04T04:52:19.914Z,6.10
2019-02-04T04:54:56.526Z,6.19
2019-02-04T04:57:30.712Z,6.27
2019-02-04T05:00:08.108Z,6.37
2019-02-04T05:02:42.257Z,6.47
2019-02-04T05:05:16.839Z,6.52
2019-02-04T05:07:53.722Z,6.63
2019-02-04T05:10:28.080Z,6.65
2019-02-04T05:13:02.191Z,6.60
2019-02-04T05:15:37.528Z,6.57
2019-02-04T05:18:11.750Z,6.55
2019-02-04T05:20:46.037Z,6.58
2019-02-04T05:23:20.394Z,6.55
2019-02-04T05:25:54.514Z,6.54
2019-02-04T05:28:29.564Z,6.59
2019-02-04T05:31:04.326Z,6.61
2019-02-04T05:33:38.801Z,6.72
2019-02-04T05:36:13.248Z,6.71
2019-02-04T05:38:47.448Z,6.73
2019-02-04T05:41:30.247Z,6.73
2019-02-04T05:44:05.539Z,6.74
2019-02-04T05:46:39.860Z,6.74
2019-02-04T05:49:14.034Z,6.73
2019-02-04T05:51:48.108Z,6.83
2019-02-04T05:54:22.644Z,6.83
2019-02-04T05:56:56.819Z,6.83
2019-02-04T05:59:35.540Z,6.86
2019-02-04T06:02:09.971Z,6.89
2019-02-04T06:04:44.127Z,6.85
2019-02-04T06:07:18.282Z,6.82
2019-02-04T06:09:52.059Z,6.81
2019-02-04T06:12:26.084Z,6.79
2019-02-04T06:15:01.156Z,6.83
2019-02-04T06:17:35.710Z,6.81
2019-02-04T06:20:12.777Z,6.71
2019-02-04T06:22:47.337Z,6.66
2019-02-04T06:25:21.848Z,6.74
2019-02-04T06:27:56.083Z,6.72
2019-02-04T06:30:43.222Z,6.76
2019-02-04T06:33:28.430Z,6.67
2019-02-04T06:36:14.412Z,6.72
2019-02-04T06:38:49.574Z,6.70
2019-02-04T06:41:24.302Z,6.73
2019-02-04T06:43:59.346Z,6.55
2019-02-04T06:46:34.628Z,6.70
2019-02-04T06:49:12.540Z,6.79
2019-02-04T06:51:46.536Z,6.83
2019-02-04T06:54:21.159Z,6.92
2019-02-04T06:56:55.577Z,6.84
2019-02-04T06:59:29.886Z,6.87
2019-02-04T07:02:03.895Z,6.96
2019-02-04T07:04:39.043Z,7.02
2019-02-04T07:07:16.277Z,7.02
2019-02-04T07:09:51.858Z,6.71
2019-02-04T07:12:26.265Z,6.77
2019-02-04T07:15:00.239Z,6.90
2019-02-04T07:17:34.678Z,6.97
2019-02-04T07:20:11.189Z,7.05
2019-02-04T07:22:46.736Z,7.16
2019-02-04T07:25:21.754Z,7.21
2019-02-04T07:27:56.441Z,7.37
2019-02-04T07:30:42.876Z,7.37
2019-02-04T07:33:26.591Z,7.35
2019-02-04T07:36:03.451Z,7.33
2019-02-04T07:38:38.427Z,7.23
2019-02-04T07:41:14.580Z,7.21
2019-02-04T07:44:00.629Z,7.21
2019-02-04T07:46:35.138Z,7.25
2019-02-04T07:49:10.582Z,7.21
2019-02-04T07:51:44.817Z,7.29
2019-02-04T07:54:18.926Z,7.43
2019-02-04T07:56:53.461Z,7.55
2019-02-04T07:59:27.818Z,7.66
2019-02-04T08:02:02.082Z,7.76
2019-02-04T08:04:36.635Z,7.96
2019-02-04T08:07:11.176Z,8.00
2019-02-04T08:09:45.915Z,8.11
2019-02-04T08:12:20.964Z,8.27
2019-02-04T08:14:55.278Z,8.36
2019-02-04T08:17:29.829Z,8.41
2019-02-04T08:20:04.321Z,8.54
2019-02-04T08:22:38.652Z,8.66
2019-02-04T08:25:13.962Z,8.79
2019-02-04T08:27:48.727Z,8.91
2019-02-04T08:30:38.073Z,8.99
2019-02-04T08:33:23.869Z,9.09
2019-02-04T08:36:07.564Z,9.17
2019-02-04T08:38:41.720Z,9.26
2019-02-04T08:41:16.220Z,9.28
2019-02-04T08:43:51.171Z,9.30
2019-02-04T08:46:25.899Z,9.42
2019-02-04T08:49:00.380Z,9.60
2019-02-04T08:51:34.770Z,9.75
2019-02-04T08:54:08.976Z,9.83
2019-02-04T08:56:56.852Z,9.99
2019-02-04T08:59:31.352Z,10.09
2019-02-04T09:02:07.495Z,10.22
2019-02-04T09:04:42.228Z,10.37
2019-02-04T09:07:18.257Z,10.53
2019-02-04T09:09:53.106Z,10.64
2019-02-04T09:12:28.892Z,10.81
2019-02-04T09:15:03.985Z,11.00
2019-02-04T09:17:39.139Z,11.06
2019-02-04T09:20:16.192Z,11.23
2019-02-04T09:22:51.089Z,11.46
2019-02-04T09:25:26.253Z,11.72
2019-02-04T09:28:10.784Z,11.91
2019-02-04T09:30:46.771Z,12.00
2019-02-04T09:33:31.220Z,11.95
2019-02-04T09:36:17.374Z,11.87
2019-02-04T09:39:01.409Z,11.84
2019-02-04T09:41:38.051Z,11.87
2019-02-04T09:44:14.006Z,11.95
2019-02-04T09:46:49.214Z,11.98
2019-02-04T09:49:24.290Z,11.97
2019-02-04T09:51:59.156Z,12.02
2019-02-04T09:54:34.097Z,12.06
2019-02-04T09:57:08.952Z,12.14
2019-02-04T09:59:43.820Z,12.21
2019-02-04T10:02:19.276Z,12.23
2019-02-04T10:04:54.352Z,12.31
2019-02-04T10:07:29.156Z,12.32
2019-02-04T10:10:04.436Z,12.29
2019-02-04T10:12:39.588Z,12.21
2019-02-04T10:15:17.197Z,12.15
2019-02-04T10:17:52.753Z,12.19
2019-02-04T10:20:34.327Z,12.19
2019-02-04T10:23:03.395Z,12.24
2019-02-04T10:25:38.888Z,12.28
2019-02-04T10:28:13.919Z,12.33
2019-02-04T10:30:50.318Z,12.40
2019-02-04T10:33:34.170Z,12.47
2019-02-04T10:36:09.737Z,12.60
2019-02-04T10:38:53.454Z,12.63
2019-02-04T10:41:27.342Z,12.70
2019-02-04T10:44:02.189Z,12.78
2019-02-04T10:46:36.549Z,12.85
2019-02-04T10:49:11.776Z,12.99
2019-02-04T10:51:46.212Z,13.05
2019-02-04T10:54:20.708Z,13.19
2019-02-04T10:56:55.095Z,13.24
2019-02-04T10:59:31.875Z,13.28
2019-02-04T11:02:06.499Z,13.35
2019-02-04T11:04:41.068Z,13.41
2019-02-04T11:07:17.591Z,13.52
2019-02-04T11:09:52.545Z,13.58
2019-02-04T11:12:28.358Z,13.65
2019-02-04T11:15:03.338Z,13.76
2019-02-04T11:17:38.155Z,13.76
2019-02-04T11:20:22.728Z,13.88
2019-02-04T11:22:57.383Z,13.97
2019-02-04T11:25:32.529Z,14.10
2019-02-04T11:28:08.584Z,14.13
2019-02-04T11:30:47.108Z,14.17
2019-02-04T11:33:33.048Z,14.18
2019-02-04T11:36:08.278Z,14.27
2019-02-04T11:38:44.320Z,14.30
2019-02-04T11:41:18.746Z,14.37
2019-02-04T11:43:53.777Z,14.41
2019-02-04T11:46:29.078Z,14.50
2019-02-04T11:49:04.447Z,14.55
2019-02-04T11:51:39.474Z,14.60
2019-02-04T11:54:15.021Z,14.68
2019-02-04T11:56:49.485Z,14.78
2019-02-04T11:59:24.123Z,14.80
2019-02-04T12:01:58.722Z,14.80
2019-02-04T12:04:33.174Z,14.84
2019-02-04T12:07:09.467Z,14.83
2019-02-04T12:09:44.778Z,14.89
2019-02-04T12:12:20.247Z,14.89
2019-02-04T12:14:54.448Z,15.06
2019-02-04T12:17:28.601Z,15.35
2019-02-04T12:20:03.222Z,15.69
2019-02-04T12:22:37.547Z,15.87
2019-02-04T12:25:14.700Z,15.98
2019-02-04T12:27:48.770Z,16.04
2019-02-04T12:30:36.316Z,16.06
2019-02-04T12:33:23.661Z,16.13
2019-02-04T12:36:03.564Z,16.26
2019-02-04T12:38:37.824Z,16.39
2019-02-04T12:41:12.667Z,16.83
2019-02-04T12:43:46.880Z,17.08
2019-02-04T12:46:22.054Z,17.27
2019-02-04T12:48:56.372Z,17.64
2019-02-04T12:51:33.725Z,17.96
2019-02-04T12:54:08.534Z,18.26
2019-02-04T12:56:44.457Z,18.30
2019-02-04T12:59:18.897Z,18.40
2019-02-04T13:01:53.174Z,18.79
2019-02-04T13:04:27.369Z,17.90
2019-02-04T13:07:05.165Z,17.80
2019-02-04T13:09:49.789Z,17.32
2019-02-04T13:12:32.169Z,17.53
2019-02-04T13:15:07.367Z,17.46
2019-02-04T13:17:41.928Z,16.68
2019-02-04T13:20:19.210Z,16.38
2019-02-04T13:22:53.830Z,16.61
2019-02-04T13:25:29.830Z,16.75
2019-02-04T13:28:04.403Z,16.51
2019-02-04T13:30:38.543Z,16.48
2019-02-04T13:33:12.454Z,16.77
2019-02-04T13:35:46.469Z,16.56
2019-02-04T13:38:21.066Z,16.74
2019-02-04T13:41:07.220Z,16.57
2019-02-04T13:43:32.088Z,16.07
2019-02-04T13:46:18.067Z,15.84
2019-02-04T13:49:02.733Z,15.62
2019-02-04T13:51:57.158Z,15.38
2019-02-04T13:54:24.129Z,15.49
2019-02-04T13:56:58.133Z,15.20
2019-02-04T13:59:33.191Z,15.11
2019-02-04T14:02:09.383Z,15.10
2019-02-04T14:04:43.732Z,15.06
2019-02-04T14:07:21.347Z,15.17
2019-02-04T14:09:54.949Z,15.10
2019-02-04T14:12:29.056Z,14.97
2019-02-04T14:15:03.590Z,15.06
2019-02-04T14:17:38.237Z,15.12
2019-02-04T14:20:15.264Z,14.96
2019-02-04T14:26:28.984Z,14.59
2019-02-04T14:29:35.256Z,14.34
2019-02-04T14:32:10.909Z,14.05
2019-02-04T14:34:44.761Z,13.91
2019-02-04T14:37:19.058Z,13.58
2019-02-04T14:39:54.653Z,13.44
2019-02-04T14:42:29.158Z,13.27
2019-02-04T14:45:43.256Z,13.26
2019-02-04T14:48:29.634Z,13.12
2019-02-04T14:54:45.346Z,12.91
2019-02-04T14:57:32.189Z,12.77
2019-02-04T15:00:17.900Z,12.62
2019-02-04T15:03:32.023Z,12.40
2019-02-04T15:06:34.700Z,12.19
2019-02-04T15:09:36.434Z,12.04
2019-02-04T15:12:52.462Z,12.02
2019-02-04T15:15:53.111Z,11.81
2019-02-04T15:19:10.200Z,11.64
2019-02-04T15:22:34.761Z,11.50
2019-02-04T15:25:44.062Z,11.36
2019-02-04T15:29:14.109Z,11.22
2019-02-04T15:32:25.073Z,11.05
2019-02-04T15:35:43.558Z,11.02
2019-02-04T15:39:01.187Z,10.93
2019-02-04T15:42:18.026Z,10.72
2019-02-04T15:45:52.331Z,10.68
2019-02-04T15:48:33.936Z,10.17
2019-02-04T15:51:18.995Z,10.15
2019-02-04T15:54:05.154Z,10.14
2019-02-04T15:56:49.526Z,10.00
2019-02-04T15:59:28.593Z,9.91
2019-02-04T16:02:46.671Z,9.66
2019-02-04T16:05:21.806Z,9.59
2019-02-04T16:07:56.317Z,9.46
2019-02-04T16:10:30.939Z,9.41
2019-02-04T16:13:07.857Z,9.32
2019-02-04T16:15:45.383Z,9.38
2019-02-04T16:18:20.913Z,9.28
2019-02-04T16:20:55.579Z,9.35
2019-02-04T16:23:31.475Z,9.30
2019-02-04T16:26:07.384Z,9.27
2019-02-04T16:28:42.908Z,9.20
2019-02-04T16:31:17.933Z,9.15
2019-02-04T16:33:53.293Z,9.03
2019-02-04T16:36:28.522Z,8.99
2019-02-04T16:39:04.314Z,8.87
2019-02-04T16:41:40.689Z,8.85
2019-02-04T16:44:15.543Z,8.68
2019-02-04T16:46:55.379Z,8.66
2019-02-04T16:49:42.122Z,8.65
2019-02-04T16:52:29.050Z,8.61
2019-02-04T16:55:15.787Z,8.59
2019-02-04T16:58:01.213Z,8.58
2019-02-04T17:00:46.080Z,8.49
2019-02-04T17:03:20.978Z,8.50
2019-02-04T17:05:55.701Z,8.47
2019-02-04T17:08:30.322Z,8.46
2019-02-04T17:11:04.513Z,8.13
2019-02-04T17:13:40.919Z,8.32
2019-02-04T17:16:15.273Z,8.23
2019-02-04T17:18:52.114Z,8.14
2019-02-04T17:21:28.693Z,8.05
2019-02-04T17:24:02.886Z,7.89
2019-02-04T17:26:37.128Z,7.86
2019-02-04T17:29:11.996Z,7.80
2019-02-04T17:31:46.810Z,7.71
2019-02-04T17:34:23.473Z,7.72
2019-02-04T17:36:58.773Z,7.65
2019-02-04T17:39:34.048Z,7.46
2019-02-04T17:42:08.434Z,7.41
2019-02-04T17:44:43.379Z,7.34
2019-02-04T17:47:18.363Z,7.32
2019-02-04T17:50:01.681Z,7.32
2019-02-04T17:52:49.604Z,7.29
2019-02-04T17:55:35.720Z,7.21
2019-02-04T17:58:10.770Z,7.13
2019-02-04T18:00:50.703Z,7.13
2019-02-04T18:03:25.501Z,7.09
2019-02-04T18:06:00.228Z,7.09
2019-02-04T18:08:35.692Z,6.99
2019-02-04T18:11:10.705Z,7.08
2019-02-04T18:13:47.055Z,7.04
2019-02-04T18:16:21.881Z,6.91
2019-02-04T18:18:56.591Z,6.91
2019-02-04T18:21:31.156Z,6.96
2019-02-04T18:24:06.629Z,6.91
2019-02-04T18:26:42.697Z,7.03
2019-02-04T18:29:18.390Z,7.06
2019-02-04T18:31:52.731Z,7.02
2019-02-04T18:34:27.314Z,7.03
2019-02-04T18:37:02.304Z,7.03
2019-02-04T18:39:36.763Z,6.95
2019-02-04T18:42:23.611Z,6.96
2019-02-04T18:45:10.553Z,6.89
2019-02-04T18:47:55.771Z,6.85
2019-02-04T18:50:40.948Z,6.58
2019-02-04T18:53:27.051Z,6.68
2019-02-04T18:56:12.052Z,6.64
2019-02-04T18:58:55.103Z,6.66
2019-02-04T19:01:29.787Z,6.59
2019-02-04T19:04:05.417Z,6.63
2019-02-04T19:06:47.708Z,6.46
2019-02-04T19:09:17.201Z,6.53
2019-02-04T19:11:52.087Z,6.63
2019-02-04T19:14:27.536Z,6.68
2019-02-04T19:17:01.779Z,6.66
2019-02-04T19:19:37.303Z,6.65
2019-02-04T19:22:11.676Z,6.49
2019-02-04T19:24:46.398Z,6.35
2019-02-04T19:27:31.794Z,6.28
2019-02-04T19:30:21.524Z,6.23
2019-02-04T19:32:57.324Z,6.09
2019-02-04T19:35:32.929Z,6.03
2019-02-04T19:38:07.005Z,5.86
2019-02-04T19:40:41.455Z,5.85
2019-02-04T19:43:16.567Z,5.74
2019-02-04T19:45:51.515Z,5.72
2019-02-04T19:48:25.595Z,5.72
2019-02-04T19:51:08.838Z,5.73
2019-02-04T19:53:43.222Z,5.74
2019-02-04T19:56:17.620Z,5.79
2019-02-04T19:58:53.977Z,5.69
2019-02-04T20:01:28.352Z,5.66
2019-02-04T20:04:03.018Z,5.62
2019-02-04T20:06:38.180Z,5.54
2019-02-04T20:09:13.484Z,5.56
2019-02-04T20:11:47.793Z,5.48
2019-02-04T20:14:23.976Z,5.43
2019-02-04T20:16:58.720Z,5.46
2019-02-04T20:19:33.005Z,5.44
2019-02-04T20:22:07.670Z,5.47
2019-02-04T20:24:44.491Z,5.46
2019-02-04T20:27:19.063Z,5.43
2019-02-04T20:29:53.423Z,5.38
2019-02-04T20:32:27.825Z,5.30
2019-02-04T20:35:14.340Z,5.33
2019-02-04T20:38:00.555Z,5.19
2019-02-04T20:40:46.029Z,5.07
2019-02-04T20:43:28.111Z,5.07
2019-02-04T20:46:02.776Z,5.01
2019-02-04T20:48:37.467Z,4.99
2019-02-04T20:51:22.533Z,4.96
2019-02-04T20:54:07.215Z,4.96
2019-02-04T20:56:44.382Z,4.96
2019-02-04T20:59:19.020Z,4.97
2019-02-04T21:01:53.134Z,4.96
2019-02-04T21:04:27.774Z,4.96
2019-02-04T21:07:01.952Z,4.92
2019-02-04T21:09:37.311Z,4.93
2019-02-04T21:12:11.618Z,4.90
2019-02-04T21:14:47.605Z,4.85
2019-02-04T21:17:22.944Z,4.85
2019-02-04T21:19:58.723Z,4.84
2019-02-04T21:22:32.957Z,4.83
2019-02-04T21:25:08.145Z,4.81
2019-02-04T21:27:42.780Z,4.82
2019-02-04T21:30:27.598Z,4.73
2019-02-04T21:33:03.251Z,4.77
2019-02-04T21:35:37.854Z,4.67
2019-02-04T21:38:14.670Z,4.66
2019-02-04T21:40:49.694Z,4.70
2019-02-04T21:43:24.120Z,4.62
2019-02-04T21:45:58.618Z,4.63
2019-02-04T21:48:32.409Z,4.57
2019-02-04T21:51:16.112Z,4.58
2019-02-04T21:53:50.501Z,4.63
2019-02-04T21:56:24.826Z,4.49
2019-02-04T21:59:00.310Z,4.51
2019-02-04T22:01:34.161Z,4.41
2019-02-04T22:04:08.350Z,4.33
2019-02-04T22:06:53.018Z,4.42
2019-02-04T22:09:32.986Z,4.45
2019-02-04T22:12:07.531Z,4.41
2019-02-04T22:14:42.667Z,4.32
2019-02-04T22:17:17.800Z,4.35
2019-02-04T22:19:54.117Z,4.28
2019-02-04T22:22:28.844Z,4.32
2019-02-04T22:25:03.105Z,4.37
2019-02-04T22:27:37.857Z,4.51
2019-02-04T22:30:16.288Z,4.51
2019-02-04T22:32:51.029Z,4.61
2019-02-04T22:35:25.563Z,4.68
2019-02-04T22:37:59.903Z,4.76
2019-02-04T22:40:34.046Z,4.62
2019-02-04T22:43:09.129Z,4.58
2019-02-04T22:45:43.293Z,4.66
2019-02-04T22:48:18.745Z,4.53
2019-02-04T22:50:52.587Z,4.67
2019-02-04T22:53:26.626Z,4.72
2019-02-04T22:56:01.314Z,4.82
2019-02-04T22:58:35.443Z,4.87
2019-02-04T23:01:40.705Z,4.89
2019-02-04T23:04:15.394Z,4.77
2019-02-04T23:07:00.615Z,4.58
2019-02-04T23:09:37.461Z,4.48
2019-02-04T23:12:11.396Z,4.45
2019-02-04T23:14:48.692Z,4.47
2019-02-04T23:17:22.511Z,4.53
2019-02-04T23:19:56.558Z,4.48
2019-02-04T23:22:30.924Z,4.33
2019-02-04T23:25:05.725Z,4.41
2019-02-04T23:27:39.389Z,4.43
2019-02-04T23:30:14.503Z,4.31
2019-02-04T23:32:49.948Z,4.47
2019-02-04T23:35:24.875Z,4.43
2019-02-04T23:38:09.502Z,4.48
2019-02-04T23:40:52.652Z,4.44
2019-02-04T23:43:25.786Z,4.37
2019-02-04T23:45:59.991Z,4.37
2019-02-04T23:48:33.812Z,4.35
2019-02-04T23:51:19.015Z,4.16
2019-02-04T23:53:58.844Z,4.18
2019-02-04T23:56:33.946Z,4.26
2019-02-04T23:59:10.844Z,4.27
